createdAt,value
2019-01-12T16:32:41.359Z,6.90
2019-01-12T16:35:12.302Z,7.13
2019-01-12T16:37:43.668Z,6.53
2019-01-12T16:40:16.793Z,10.00
2019-01-12T16:42:47.418Z,6.60
2019-01-12T16:45:18.282Z,7.07
2019-01-12T16:47:49.051Z,7.50
2019-01-12T16:50:19.788Z,8.00
2019-01-12T16:52:50.400Z,7.20
2019-01-12T16:55:21.084Z,6.63
2019-01-12T16:57:51.565Z,9.33
2019-01-12T17:00:27.168Z,7.80
2019-01-12T17:02:57.779Z,8.87
2019-01-12T17:05:28.467Z,7.73
2019-01-12T17:07:59.155Z,9.10
2019-01-12T17:10:29.844Z,10.33
2019-01-12T17:13:01.554Z,8.13
2019-01-12T17:15:34.735Z,6.27
2019-01-12T17:18:04.445Z,6.40
2019-01-12T17:20:35.084Z,5.40
2019-01-12T17:23:08.735Z,5.23
2019-01-12T17:25:39.472Z,5.47
2019-01-12T17:28:10.113Z,7.00
2019-01-12T17:30:40.772Z,6.30
2019-01-12T17:33:11.260Z,7.07
2019-01-12T17:35:42.454Z,5.50
2019-01-12T17:38:13.914Z,5.93
2019-01-12T17:40:44.684Z,7.57
2019-01-12T17:43:15.372Z,6.60
2019-01-12T17:45:45.947Z,5.33
2019-01-12T17:48:16.644Z,8.10
2019-01-12T17:50:47.445Z,6.70
2019-01-12T17:53:18.003Z,7.00
2019-01-12T17:55:48.675Z,8.40
2019-01-12T17:58:19.319Z,6.73
2019-01-12T18:00:53.678Z,6.97
2019-01-12T18:03:24.168Z,7.00
2019-01-12T18:05:54.793Z,9.00
2019-01-12T18:08:25.480Z,9.00
2019-01-12T18:10:55.958Z,6.03
2019-01-12T18:13:26.519Z,6.43
2019-01-12T18:15:57.118Z,5.80
2019-01-12T18:18:27.862Z,4.30
2019-01-12T18:20:58.542Z,6.00
2019-01-12T18:23:29.305Z,5.17
2019-01-12T18:26:00.003Z,4.90
2019-01-12T18:28:30.683Z,6.47
2019-01-12T18:31:01.272Z,6.03
2019-01-12T18:33:32.042Z,5.47
2019-01-12T18:36:02.835Z,5.60
2019-01-12T18:38:33.511Z,4.53
2019-01-12T18:41:04.144Z,5.03
2019-01-12T18:43:34.892Z,4.80
2019-01-12T18:46:11.870Z,4.42
2019-01-12T18:48:38.163Z,4.37
2019-01-12T18:51:08.536Z,4.60
2019-01-12T18:53:39.247Z,5.80
2019-01-12T18:56:09.875Z,8.30
2019-01-12T18:58:40.778Z,6.30
2019-01-12T19:01:11.503Z,5.60
2019-01-12T19:03:42.098Z,6.83
2019-01-12T19:06:12.766Z,6.23
2019-01-12T19:08:43.437Z,6.10
2019-01-12T19:11:14.132Z,5.50
2019-01-12T19:13:45.053Z,5.13
2019-01-12T19:16:15.877Z,4.10
2019-01-12T19:18:46.682Z,6.23
2019-01-12T19:21:17.451Z,6.47
2019-01-12T19:23:49.354Z,9.80
2019-01-12T19:26:21.270Z,8.60
2019-01-12T19:28:52.121Z,5.10
2019-01-12T19:31:22.839Z,5.27
2019-01-12T19:33:53.796Z,6.67
2019-01-12T19:36:24.547Z,8.23
2019-01-12T19:38:55.425Z,6.07
2019-01-12T19:41:26.213Z,5.10
2019-01-12T19:43:56.950Z,4.43
2019-01-12T19:46:27.848Z,4.90
2019-01-12T19:48:58.709Z,4.70
2019-01-12T19:51:29.531Z,4.97
2019-01-12T19:54:00.284Z,4.63
2019-01-12T19:56:31.851Z,4.10
2019-01-12T19:59:02.673Z,4.37
2019-01-12T20:01:33.382Z,3.83
2019-01-12T20:04:04.372Z,4.07
2019-01-12T20:06:35.153Z,4.93
2019-01-12T20:09:09.215Z,4.70
2019-01-12T20:11:40.137Z,3.97
2019-01-12T20:14:11.090Z,3.53
2019-01-12T20:16:42.017Z,4.77
2019-01-12T20:19:12.765Z,4.83
2019-01-12T20:21:44.480Z,4.30
2019-01-12T20:24:15.269Z,4.83
2019-01-12T20:26:46.047Z,5.00
2019-01-12T20:29:21.125Z,4.83
2019-01-12T20:32:32.711Z,4.10
2019-01-12T20:35:35.502Z,3.20
2019-01-12T20:38:44.018Z,3.20
2019-01-12T20:41:58.174Z,3.90
2019-01-12T20:45:00.023Z,3.83
2019-01-12T20:48:08.605Z,3.73
2019-01-12T20:50:44.693Z,5.20
2019-01-12T20:53:48.914Z,5.00
2019-01-12T20:56:47.719Z,4.13
2019-01-12T20:59:33.551Z,4.57
2019-01-12T21:02:59.638Z,4.07
2019-01-12T21:06:32.479Z,4.13
2019-01-12T21:09:45.351Z,3.50
2019-01-12T21:12:51.568Z,3.20
2019-01-12T21:15:31.465Z,3.13
2019-01-12T21:18:02.300Z,3.13
2019-01-12T21:20:32.901Z,8.20
2019-01-12T21:23:03.707Z,4.30
2019-01-12T21:25:34.570Z,8.30
2019-01-12T21:28:05.627Z,5.50
2019-01-12T21:30:36.377Z,4.37
2019-01-12T21:33:07.255Z,4.20
2019-01-12T21:35:38.057Z,2.93
2019-01-12T21:38:08.905Z,3.10
2019-01-12T21:40:39.811Z,3.60
2019-01-12T21:43:10.862Z,3.27
2019-01-12T21:45:41.603Z,3.00
2019-01-12T21:48:12.663Z,2.90
2019-01-12T21:50:43.745Z,3.50
2019-01-12T21:53:14.827Z,3.83
2019-01-12T21:55:45.766Z,3.53
2019-01-12T21:58:16.537Z,3.10
2019-01-12T22:00:47.433Z,2.03
2019-01-12T22:03:18.289Z,2.40
2019-01-12T22:05:49.176Z,2.10
2019-01-12T22:08:19.882Z,2.30
2019-01-12T22:10:50.742Z,2.30
2019-01-12T22:13:21.729Z,2.20
2019-01-12T22:15:52.622Z,2.07
2019-01-12T22:18:23.444Z,2.07
2019-01-12T22:20:54.329Z,1.97
2019-01-12T22:23:26.226Z,1.57
2019-01-12T22:25:57.025Z,1.90
2019-01-12T22:28:27.779Z,1.83
2019-01-12T22:30:58.562Z,1.50
2019-01-12T22:33:29.358Z,1.60
2019-01-12T22:36:00.035Z,1.00
2019-01-12T22:38:30.994Z,1.50
2019-01-12T22:41:01.695Z,1.23
2019-01-12T22:43:32.514Z,1.33
2019-01-12T22:46:03.422Z,1.33
2019-01-12T22:48:34.473Z,1.33
2019-01-12T22:51:07.345Z,1.87
2019-01-12T22:53:39.701Z,1.27
2019-01-12T22:56:14.115Z,1.40
2019-01-12T22:58:45.169Z,1.17
2019-01-12T23:01:24.307Z,1.60
2019-01-12T23:03:55.438Z,1.23
2019-01-12T23:06:26.044Z,1.30
2019-01-12T23:08:56.915Z,1.60
2019-01-12T23:11:27.646Z,1.53
2019-01-12T23:13:58.729Z,1.50
2019-01-12T23:16:31.937Z,1.83
2019-01-12T23:19:02.870Z,1.33
2019-01-12T23:21:33.858Z,1.30
2019-01-12T23:24:04.830Z,1.57
2019-01-12T23:26:35.697Z,1.47
2019-01-12T23:29:07.030Z,1.50
2019-01-12T23:31:37.925Z,0.90
2019-01-12T23:34:08.685Z,1.10
2019-01-12T23:36:39.554Z,1.67
2019-01-12T23:39:11.373Z,1.10
2019-01-12T23:41:42.253Z,1.00
2019-01-12T23:44:15.058Z,1.20
2019-01-12T23:46:45.902Z,1.10
2019-01-12T23:49:17.805Z,1.23
2019-01-12T23:51:48.499Z,1.57
2019-01-12T23:54:19.572Z,0.90
2019-01-12T23:56:50.354Z,1.03
2019-01-12T23:59:21.523Z,0.90
